sensor_id;sensor_type;location;lat;lon;timestamp;pressure;altitude;pressure_sealevel;temperature;humidity
65758;BME280;52495;52.208;5.158;2023-03-03T00:01:30;102503.88;;;2.83;93.54
65758;BME280;52495;52.208;5.158;2023-03-03T00:03:58;102505.59;;;2.84;93.91
65758;BME280;52495;52.208;5.158;2023-03-03T00:06:25;102507.16;;;2.80;94.60
65758;BME280;52495;52.208;5.158;2023-03-03T00:08:54;102505.28;;;2.76;94.61
65758;BME280;52495;52.208;5.158;2023-03-03T00:11:21;102498.09;;;2.87;94.48
65758;BME280;52495;52.208;5.158;2023-03-03T00:13:50;102507.50;;;2.88;95.12
65758;BME280;52495;52.208;5.158;2023-03-03T00:16:22;102504.56;;;2.79;95.58
65758;BME280;52495;52.208;5.158;2023-03-03T00:18:51;102511.28;;;2.77;95.54
65758;BME280;52495;52.208;5.158;2023-03-03T00:21:24;102510.47;;;2.78;95.42
65758;BME280;52495;52.208;5.158;2023-03-03T00:23:54;102507.25;;;2.82;95.48
65758;BME280;52495;52.208;5.158;2023-03-03T00:26:28;102516.25;;;2.73;95.44
65758;BME280;52495;52.208;5.158;2023-03-03T00:28:56;102517.50;;;2.83;95.38
65758;BME280;52495;52.208;5.158;2023-03-03T00:31:28;102512.69;;;2.70;95.67
65758;BME280;52495;52.208;5.158;2023-03-03T00:34:01;102519.31;;;2.86;95.30
65758;BME280;52495;52.208;5.158;2023-03-03T00:36:37;102521.16;;;2.69;95.46
65758;BME280;52495;52.208;5.158;2023-03-03T00:39:18;102523.09;;;2.75;95.23
65758;BME280;52495;52.208;5.158;2023-03-03T00:41:45;102523.22;;;2.78;95.22
65758;BME280;52495;52.208;5.158;2023-03-03T00:44:30;102521.22;;;2.70;95.43
65758;BME280;52495;52.208;5.158;2023-03-03T00:47:20;102518.25;;;2.81;94.62
65758;BME280;52495;52.208;5.158;2023-03-03T00:49:50;102525.59;;;2.73;94.76
65758;BME280;52495;52.208;5.158;2023-03-03T00:52:18;102530.56;;;2.70;94.65
65758;BME280;52495;52.208;5.158;2023-03-03T00:54:46;102534.09;;;2.73;94.78
65758;BME280;52495;52.208;5.158;2023-03-03T00:57:13;102537.94;;;2.64;95.18
65758;BME280;52495;52.208;5.158;2023-03-03T00:59:41;102542.03;;;2.60;95.09
65758;BME280;52495;52.208;5.158;2023-03-03T01:02:08;102540.44;;;2.62;94.75
65758;BME280;52495;52.208;5.158;2023-03-03T01:04:35;102541.16;;;2.60;95.16
65758;BME280;52495;52.208;5.158;2023-03-03T01:07:03;102542.69;;;2.56;94.89
65758;BME280;52495;52.208;5.158;2023-03-03T01:09:30;102539.16;;;2.52;95.03
65758;BME280;52495;52.208;5.158;2023-03-03T01:11:57;102542.31;;;2.47;94.59
65758;BME280;52495;52.208;5.158;2023-03-03T01:14:24;102540.75;;;2.50;94.27
65758;BME280;52495;52.208;5.158;2023-03-03T01:16:51;102550.44;;;2.38;94.70
65758;BME280;52495;52.208;5.158;2023-03-03T01:19:17;102547.88;;;2.38;94.15
65758;BME280;52495;52.208;5.158;2023-03-03T01:21:44;102541.38;;;2.45;93.95
65758;BME280;52495;52.208;5.158;2023-03-03T01:24:13;102535.78;;;2.34;93.50
65758;BME280;52495;52.208;5.158;2023-03-03T01:26:39;102538.72;;;2.23;93.34
65758;BME280;52495;52.208;5.158;2023-03-03T01:29:06;102539.00;;;2.30;93.21
65758;BME280;52495;52.208;5.158;2023-03-03T01:31:33;102546.09;;;2.17;94.07
65758;BME280;52495;52.208;5.158;2023-03-03T01:34:00;102541.97;;;2.19;94.13
65758;BME280;52495;52.208;5.158;2023-03-03T01:36:27;102542.47;;;2.12;94.49
65758;BME280;52495;52.208;5.158;2023-03-03T01:38:54;102538.28;;;1.94;94.68
65758;BME280;52495;52.208;5.158;2023-03-03T01:41:26;102546.75;;;2.13;94.22
65758;BME280;52495;52.208;5.158;2023-03-03T01:43:54;102550.25;;;2.15;94.96
65758;BME280;52495;52.208;5.158;2023-03-03T01:46:40;102543.06;;;2.06;95.74
65758;BME280;52495;52.208;5.158;2023-03-03T01:49:13;102547.66;;;1.95;96.14
65758;BME280;52495;52.208;5.158;2023-03-03T01:51:45;102551.91;;;1.95;96.76
65758;BME280;52495;52.208;5.158;2023-03-03T01:54:17;102544.81;;;2.07;96.38
65758;BME280;52495;52.208;5.158;2023-03-03T01:56:47;102553.41;;;1.91;96.61
65758;BME280;52495;52.208;5.158;2023-03-03T01:59:17;102550.88;;;1.91;97.04
65758;BME280;52495;52.208;5.158;2023-03-03T02:01:46;102547.16;;;2.03;97.11
65758;BME280;52495;52.208;5.158;2023-03-03T02:04:14;102546.63;;;2.10;96.31
65758;BME280;52495;52.208;5.158;2023-03-03T02:06:45;102548.47;;;1.94;96.56
65758;BME280;52495;52.208;5.158;2023-03-03T02:09:16;102551.75;;;1.92;97.11
65758;BME280;52495;52.208;5.158;2023-03-03T02:11:50;102554.91;;;2.06;97.19
65758;BME280;52495;52.208;5.158;2023-03-03T02:14:18;102551.31;;;2.01;97.20
65758;BME280;52495;52.208;5.158;2023-03-03T02:16:45;102549.25;;;2.11;96.93
65758;BME280;52495;52.208;5.158;2023-03-03T02:19:17;102542.47;;;2.12;97.29
65758;BME280;52495;52.208;5.158;2023-03-03T02:21:47;102539.16;;;2.33;96.44
65758;BME280;52495;52.208;5.158;2023-03-03T02:24:19;102539.06;;;2.31;95.88
65758;BME280;52495;52.208;5.158;2023-03-03T02:26:50;102545.66;;;2.26;95.68
65758;BME280;52495;52.208;5.158;2023-03-03T02:29:16;102544.16;;;2.31;95.87
65758;BME280;52495;52.208;5.158;2023-03-03T02:31:43;102548.19;;;2.26;96.28
65758;BME280;52495;52.208;5.158;2023-03-03T02:34:10;102553.16;;;2.23;97.07
65758;BME280;52495;52.208;5.158;2023-03-03T02:36:39;102545.31;;;2.18;96.71
65758;BME280;52495;52.208;5.158;2023-03-03T02:39:08;102539.31;;;2.18;97.04
65758;BME280;52495;52.208;5.158;2023-03-03T02:41:38;102552.16;;;2.19;96.88
65758;BME280;52495;52.208;5.158;2023-03-03T02:44:10;102540.91;;;2.16;96.93
65758;BME280;52495;52.208;5.158;2023-03-03T02:46:39;102553.91;;;2.20;96.78
65758;BME280;52495;52.208;5.158;2023-03-03T02:49:08;102552.19;;;2.21;97.35
65758;BME280;52495;52.208;5.158;2023-03-03T02:51:36;102549.66;;;2.21;96.61
65758;BME280;52495;52.208;5.158;2023-03-03T02:54:03;102542.78;;;2.38;96.17
65758;BME280;52495;52.208;5.158;2023-03-03T02:56:32;102543.59;;;2.37;96.14
65758;BME280;52495;52.208;5.158;2023-03-03T02:58:59;102554.25;;;2.28;95.84
65758;BME280;52495;52.208;5.158;2023-03-03T03:01:31;102548.13;;;2.44;95.44
65758;BME280;52495;52.208;5.158;2023-03-03T03:04:06;102555.91;;;2.27;95.68
65758;BME280;52495;52.208;5.158;2023-03-03T03:06:34;102553.44;;;2.29;96.06
65758;BME280;52495;52.208;5.158;2023-03-03T03:09:02;102549.19;;;2.30;95.10
65758;BME280;52495;52.208;5.158;2023-03-03T03:11:29;102550.53;;;2.21;95.77
65758;BME280;52495;52.208;5.158;2023-03-03T03:13:56;102546.69;;;2.31;95.74
65758;BME280;52495;52.208;5.158;2023-03-03T03:16:23;102539.94;;;2.32;95.07
65758;BME280;52495;52.208;5.158;2023-03-03T03:18:52;102548.84;;;2.22;95.46
65758;BME280;52495;52.208;5.158;2023-03-03T03:21:19;102546.91;;;2.16;96.21
65758;BME280;52495;52.208;5.158;2023-03-03T03:23:45;102544.22;;;2.13;96.75
65758;BME280;52495;52.208;5.158;2023-03-03T03:26:12;102541.66;;;2.13;97.73
65758;BME280;52495;52.208;5.158;2023-03-03T03:28:40;102535.91;;;2.17;97.25
65758;BME280;52495;52.208;5.158;2023-03-03T03:31:07;102539.53;;;2.22;98.22
65758;BME280;52495;52.208;5.158;2023-03-03T03:33:35;102536.53;;;2.51;95.67
65758;BME280;52495;52.208;5.158;2023-03-03T03:36:04;102538.00;;;2.26;95.43
65758;BME280;52495;52.208;5.158;2023-03-03T03:38:33;102533.09;;;2.31;96.23
65758;BME280;52495;52.208;5.158;2023-03-03T03:41:02;102537.78;;;2.41;95.92
65758;BME280;52495;52.208;5.158;2023-03-03T03:43:30;102546.44;;;2.25;96.33
65758;BME280;52495;52.208;5.158;2023-03-03T03:45:57;102543.28;;;2.31;95.88
65758;BME280;52495;52.208;5.158;2023-03-03T03:48:25;102545.19;;;2.35;96.05
65758;BME280;52495;52.208;5.158;2023-03-03T03:50:52;102550.09;;;2.30;96.26
65758;BME280;52495;52.208;5.158;2023-03-03T03:53:21;102548.72;;;2.38;96.15
65758;BME280;52495;52.208;5.158;2023-03-03T03:55:48;102556.19;;;2.34;95.90
65758;BME280;52495;52.208;5.158;2023-03-03T03:58:17;102555.25;;;2.32;96.07
65758;BME280;52495;52.208;5.158;2023-03-03T04:00:50;102561.75;;;2.25;97.06
65758;BME280;52495;52.208;5.158;2023-03-03T04:03:17;102563.50;;;2.26;97.18
65758;BME280;52495;52.208;5.158;2023-03-03T04:05:46;102573.06;;;2.32;97.75
65758;BME280;52495;52.208;5.158;2023-03-03T04:08:13;102563.28;;;2.41;96.80
65758;BME280;52495;52.208;5.158;2023-03-03T04:10:42;102562.88;;;2.32;96.48
65758;BME280;52495;52.208;5.158;2023-03-03T04:13:10;102563.03;;;2.35;97.04
65758;BME280;52495;52.208;5.158;2023-03-03T04:15:38;102553.31;;;2.46;96.67
65758;BME280;52495;52.208;5.158;2023-03-03T04:18:04;102561.06;;;2.49;96.47
65758;BME280;52495;52.208;5.158;2023-03-03T04:20:31;102567.97;;;2.32;96.30
65758;BME280;52495;52.208;5.158;2023-03-03T04:22:58;102561.94;;;2.30;96.90
65758;BME280;52495;52.208;5.158;2023-03-03T04:25:25;102559.06;;;2.41;96.87
65758;BME280;52495;52.208;5.158;2023-03-03T04:27:54;102559.75;;;2.57;96.69
65758;BME280;52495;52.208;5.158;2023-03-03T04:30:22;102559.41;;;2.49;96.99
65758;BME280;52495;52.208;5.158;2023-03-03T04:32:52;102568.28;;;2.38;97.35
65758;BME280;52495;52.208;5.158;2023-03-03T04:35:22;102567.84;;;2.48;97.39
65758;BME280;52495;52.208;5.158;2023-03-03T04:37:49;102568.13;;;2.35;97.83
65758;BME280;52495;52.208;5.158;2023-03-03T04:40:16;102563.16;;;2.38;99.11
65758;BME280;52495;52.208;5.158;2023-03-03T04:42:45;102569.06;;;2.37;98.74
65758;BME280;52495;52.208;5.158;2023-03-03T04:45:13;102570.72;;;2.36;99.25
65758;BME280;52495;52.208;5.158;2023-03-03T04:47:41;102566.88;;;2.26;98.68
65758;BME280;52495;52.208;5.158;2023-03-03T04:50:09;102575.34;;;2.25;99.74
65758;BME280;52495;52.208;5.158;2023-03-03T04:52:36;102571.63;;;2.37;99.96
65758;BME280;52495;52.208;5.158;2023-03-03T04:55:06;102572.94;;;2.28;99.59
65758;BME280;52495;52.208;5.158;2023-03-03T04:57:34;102570.41;;;2.48;99.99
65758;BME280;52495;52.208;5.158;2023-03-03T05:00:01;102570.72;;;2.36;99.96
65758;BME280;52495;52.208;5.158;2023-03-03T05:02:31;102581.53;;;2.31;100.00
65758;BME280;52495;52.208;5.158;2023-03-03T05:04:58;102570.06;;;2.40;100.00
65758;BME280;52495;52.208;5.158;2023-03-03T05:07:25;102553.88;;;2.40;100.00
65758;BME280;52495;52.208;5.158;2023-03-03T05:09:52;102568.03;;;2.33;99.98
65758;BME280;52495;52.208;5.158;2023-03-03T05:12:18;102560.81;;;2.42;100.00
65758;BME280;52495;52.208;5.158;2023-03-03T05:14:45;102559.88;;;2.40;100.00
65758;BME280;52495;52.208;5.158;2023-03-03T05:17:12;102565.91;;;2.42;100.00
65758;BME280;52495;52.208;5.158;2023-03-03T05:19:41;102566.41;;;2.53;100.00
65758;BME280;52495;52.208;5.158;2023-03-03T05:22:08;102563.03;;;2.54;100.00
65758;BME280;52495;52.208;5.158;2023-03-03T05:24:35;102569.19;;;2.60;100.00
65758;BME280;52495;52.208;5.158;2023-03-03T05:27:02;102563.56;;;2.67;100.00
65758;BME280;52495;52.208;5.158;2023-03-03T05:29:28;102557.56;;;2.66;100.00
65758;BME280;52495;52.208;5.158;2023-03-03T05:31:56;102560.88;;;2.83;99.06
65758;BME280;52495;52.208;5.158;2023-03-03T05:34:22;102560.81;;;2.82;99.48
65758;BME280;52495;52.208;5.158;2023-03-03T05:36:51;102560.88;;;2.64;99.62
65758;BME280;52495;52.208;5.158;2023-03-03T05:39:17;102556.38;;;2.78;99.92
65758;BME280;52495;52.208;5.158;2023-03-03T05:41:44;102557.00;;;2.72;99.21
65758;BME280;52495;52.208;5.158;2023-03-03T05:44:11;102562.56;;;2.63;99.98
65758;BME280;52495;52.208;5.158;2023-03-03T05:46:37;102563.56;;;2.67;100.00
65758;BME280;52495;52.208;5.158;2023-03-03T05:49:04;102564.50;;;2.69;100.00
65758;BME280;52495;52.208;5.158;2023-03-03T05:51:31;102556.25;;;2.75;100.00
65758;BME280;52495;52.208;5.158;2023-03-03T05:53:59;102572.06;;;2.67;100.00
65758;BME280;52495;52.208;5.158;2023-03-03T05:56:26;102564.66;;;2.72;100.00
65758;BME280;52495;52.208;5.158;2023-03-03T05:58:52;102570.66;;;2.74;100.00
65758;BME280;52495;52.208;5.158;2023-03-03T06:01:19;102571.41;;;2.71;100.00
65758;BME280;52495;52.208;5.158;2023-03-03T06:03:46;102568.72;;;2.68;100.00
65758;BME280;52495;52.208;5.158;2023-03-03T06:06:13;102565.31;;;2.68;100.00
65758;BME280;52495;52.208;5.158;2023-03-03T06:08:41;102572.88;;;2.86;100.00
65758;BME280;52495;52.208;5.158;2023-03-03T06:11:09;102572.88;;;2.66;100.00
65758;BME280;52495;52.208;5.158;2023-03-03T06:13:36;102583.41;;;2.74;100.00
65758;BME280;52495;52.208;5.158;2023-03-03T06:16:03;102578.06;;;2.68;100.00
65758;BME280;52495;52.208;5.158;2023-03-03T06:18:31;102579.53;;;2.63;100.00
65758;BME280;52495;52.208;5.158;2023-03-03T06:20:57;102573.69;;;2.65;100.00
65758;BME280;52495;52.208;5.158;2023-03-03T06:23:24;102578.88;;;2.67;100.00
65758;BME280;52495;52.208;5.158;2023-03-03T06:25:51;102582.28;;;2.67;100.00
65758;BME280;52495;52.208;5.158;2023-03-03T06:28:19;102585.75;;;2.50;100.00
65758;BME280;52495;52.208;5.158;2023-03-03T06:30:46;102584.34;;;2.56;100.00
65758;BME280;52495;52.208;5.158;2023-03-03T06:33:13;102591.81;;;2.52;100.00
65758;BME280;52495;52.208;5.158;2023-03-03T06:35:39;102584.00;;;2.49;100.00
65758;BME280;52495;52.208;5.158;2023-03-03T06:38:06;102583.84;;;2.64;100.00
65758;BME280;52495;52.208;5.158;2023-03-03T06:40:33;102592.00;;;2.56;100.00
65758;BME280;52495;52.208;5.158;2023-03-03T06:42:59;102597.66;;;2.49;100.00
65758;BME280;52495;52.208;5.158;2023-03-03T06:45:29;102599.59;;;2.55;100.00
65758;BME280;52495;52.208;5.158;2023-03-03T06:47:55;102586.91;;;2.56;100.00
65758;BME280;52495;52.208;5.158;2023-03-03T06:50:22;102600.47;;;2.75;100.00
65758;BME280;52495;52.208;5.158;2023-03-03T06:52:49;102599.47;;;2.71;100.00
65758;BME280;52495;52.208;5.158;2023-03-03T06:55:23;102605.84;;;2.62;100.00
65758;BME280;52495;52.208;5.158;2023-03-03T06:57:50;102612.78;;;2.64;100.00
65758;BME280;52495;52.208;5.158;2023-03-03T07:00:23;102612.22;;;2.71;100.00
65758;BME280;52495;52.208;5.158;2023-03-03T07:02:57;102613.03;;;2.70;100.00
65758;BME280;52495;52.208;5.158;2023-03-03T07:05:25;102620.00;;;2.75;100.00
65758;BME280;52495;52.208;5.158;2023-03-03T07:07:53;102610.75;;;2.77;100.00
65758;BME280;52495;52.208;5.158;2023-03-03T07:10:23;102613.44;;;2.80;100.00
65758;BME280;52495;52.208;5.158;2023-03-03T07:12:50;102621.53;;;2.91;100.00
65758;BME280;52495;52.208;5.158;2023-03-03T07:15:20;102629.56;;;2.98;100.00
65758;BME280;52495;52.208;5.158;2023-03-03T07:17:49;102627.66;;;2.94;100.00
65758;BME280;52495;52.208;5.158;2023-03-03T07:20:22;102632.03;;;2.97;100.00
65758;BME280;52495;52.208;5.158;2023-03-03T07:22:49;102632.09;;;2.98;100.00
65758;BME280;52495;52.208;5.158;2023-03-03T07:25:22;102631.53;;;3.06;100.00
65758;BME280;52495;52.208;5.158;2023-03-03T07:27:55;102640.16;;;3.08;100.00
65758;BME280;52495;52.208;5.158;2023-03-03T07:30:26;102637.06;;;3.15;100.00
65758;BME280;52495;52.208;5.158;2023-03-03T07:32:54;102634.25;;;3.30;100.00
65758;BME280;52495;52.208;5.158;2023-03-03T07:35:39;102638.09;;;3.20;100.00
65758;BME280;52495;52.208;5.158;2023-03-03T07:38:16;102635.63;;;3.22;100.00
65758;BME280;52495;52.208;5.158;2023-03-03T07:40:50;102638.84;;;3.17;100.00
65758;BME280;52495;52.208;5.158;2023-03-03T07:43:36;102643.66;;;3.31;100.00
65758;BME280;52495;52.208;5.158;2023-03-03T07:46:21;102645.41;;;3.32;100.00
65758;BME280;52495;52.208;5.158;2023-03-03T07:48:50;102653.69;;;3.26;100.00
65758;BME280;52495;52.208;5.158;2023-03-03T07:51:20;102655.94;;;3.40;100.00
65758;BME280;52495;52.208;5.158;2023-03-03T07:53:50;102663.47;;;3.37;100.00
65758;BME280;52495;52.208;5.158;2023-03-03T07:56:26;102656.56;;;3.34;100.00
65758;BME280;52495;52.208;5.158;2023-03-03T07:58:54;102666.34;;;3.44;100.00
65758;BME280;52495;52.208;5.158;2023-03-03T08:01:39;102663.16;;;3.29;100.00
65758;BME280;52495;52.208;5.158;2023-03-03T08:04:19;102671.00;;;3.33;100.00
65758;BME280;52495;52.208;5.158;2023-03-03T08:06:51;102671.41;;;3.43;100.00
65758;BME280;52495;52.208;5.158;2023-03-03T08:09:37;102676.31;;;3.38;100.00
65758;BME280;52495;52.208;5.158;2023-03-03T08:12:22;102681.56;;;3.41;100.00
65758;BME280;52495;52.208;5.158;2023-03-03T08:14:51;102676.66;;;3.46;100.00
65758;BME280;52495;52.208;5.158;2023-03-03T08:17:20;102681.66;;;3.44;100.00
65758;BME280;52495;52.208;5.158;2023-03-03T08:19:48;102682.75;;;3.49;100.00
65758;BME280;52495;52.208;5.158;2023-03-03T08:22:18;102693.84;;;3.50;100.00
65758;BME280;52495;52.208;5.158;2023-03-03T08:24:45;102689.06;;;3.58;99.97
65758;BME280;52495;52.208;5.158;2023-03-03T08:27:12;102692.91;;;3.69;99.97
65758;BME280;52495;52.208;5.158;2023-03-03T08:29:38;102691.94;;;3.66;100.00
65758;BME280;52495;52.208;5.158;2023-03-03T08:32:05;102691.63;;;3.79;100.00
65758;BME280;52495;52.208;5.158;2023-03-03T08:34:32;102692.06;;;3.90;99.56
65758;BME280;52495;52.208;5.158;2023-03-03T08:36:59;102690.22;;;3.87;99.30
65758;BME280;52495;52.208;5.158;2023-03-03T08:39:27;102689.19;;;3.82;99.69
65758;BME280;52495;52.208;5.158;2023-03-03T08:41:54;102690.75;;;4.00;99.53
65758;BME280;52495;52.208;5.158;2023-03-03T08:44:20;102690.41;;;4.13;98.44
65758;BME280;52495;52.208;5.158;2023-03-03T08:46:47;102691.09;;;4.09;97.96
65758;BME280;52495;52.208;5.158;2023-03-03T08:49:14;102694.78;;;4.16;98.39
65758;BME280;52495;52.208;5.158;2023-03-03T08:51:41;102689.09;;;4.23;97.94
65758;BME280;52495;52.208;5.158;2023-03-03T08:54:08;102696.06;;;4.27;95.96
65758;BME280;52495;52.208;5.158;2023-03-03T08:56:36;102695.75;;;4.19;96.80
65758;BME280;52495;52.208;5.158;2023-03-03T08:59:03;102701.88;;;4.23;97.75
65758;BME280;52495;52.208;5.158;2023-03-03T09:01:30;102702.41;;;4.37;98.22
65758;BME280;52495;52.208;5.158;2023-03-03T09:03:58;102696.44;;;4.36;97.09
65758;BME280;52495;52.208;5.158;2023-03-03T09:06:24;102701.97;;;4.47;96.66
65758;BME280;52495;52.208;5.158;2023-03-03T09:08:52;102699.31;;;4.46;96.44
65758;BME280;52495;52.208;5.158;2023-03-03T09:11:23;102699.53;;;4.50;96.60
65758;BME280;52495;52.208;5.158;2023-03-03T09:13:58;102699.44;;;4.49;95.42
65758;BME280;52495;52.208;5.158;2023-03-03T09:16:29;102699.69;;;4.55;95.49
65758;BME280;52495;52.208;5.158;2023-03-03T09:19:15;102704.13;;;4.59;95.31
65758;BME280;52495;52.208;5.158;2023-03-03T09:21:42;102698.41;;;4.66;94.27
65758;BME280;52495;52.208;5.158;2023-03-03T09:24:17;102700.97;;;4.66;94.51
65758;BME280;52495;52.208;5.158;2023-03-03T09:26:49;102699.44;;;4.71;94.66
65758;BME280;52495;52.208;5.158;2023-03-03T09:29:23;102697.75;;;4.72;93.69
65758;BME280;52495;52.208;5.158;2023-03-03T09:31:53;102694.72;;;4.82;93.58
65758;BME280;52495;52.208;5.158;2023-03-03T09:34:22;102694.19;;;4.91;92.23
65758;BME280;52495;52.208;5.158;2023-03-03T09:36:53;102693.03;;;4.83;92.37
65758;BME280;52495;52.208;5.158;2023-03-03T09:39:21;102700.66;;;4.81;92.91
65758;BME280;52495;52.208;5.158;2023-03-03T09:44:55;102702.19;;;5.00;92.24
65758;BME280;52495;52.208;5.158;2023-03-03T09:47:34;102699.91;;;5.08;92.49
65758;BME280;52495;52.208;5.158;2023-03-03T09:50:15;102703.41;;;5.10;90.98
65758;BME280;52495;52.208;5.158;2023-03-03T09:52:51;102711.25;;;5.15;90.60
65758;BME280;52495;52.208;5.158;2023-03-03T09:55:33;102704.72;;;5.23;90.59
65758;BME280;52495;52.208;5.158;2023-03-03T09:58:15;102703.00;;;5.24;90.67
65758;BME280;52495;52.208;5.158;2023-03-03T10:00:56;102704.28;;;5.35;90.66
65758;BME280;52495;52.208;5.158;2023-03-03T10:03:43;102704.53;;;5.43;90.46
65758;BME280;52495;52.208;5.158;2023-03-03T10:06:17;102711.81;;;5.56;89.87
65758;BME280;52495;52.208;5.158;2023-03-03T10:09:01;102711.59;;;5.50;88.59
65758;BME280;52495;52.208;5.158;2023-03-03T10:11:37;102715.19;;;5.55;87.92
65758;BME280;52495;52.208;5.158;2023-03-03T10:14:26;102711.97;;;5.61;88.04
65758;BME280;52495;52.208;5.158;2023-03-03T10:17:17;102708.66;;;5.64;nan
65758;BME280;52495;52.208;5.158;2023-03-03T10:19:57;102714.53;;;5.61;86.72
65758;BME280;52495;52.208;5.158;2023-03-03T10:22:33;102707.56;;;5.83;87.97
65758;BME280;52495;52.208;5.158;2023-03-03T10:25:21;102705.97;;;5.86;86.89
65758;BME280;52495;52.208;5.158;2023-03-03T10:28:06;102699.53;;;5.99;87.08
65758;BME280;52495;52.208;5.158;2023-03-03T10:30:46;102707.88;;;6.19;86.28
65758;BME280;52495;52.208;5.158;2023-03-03T10:33:25;102702.38;;;6.34;85.55
65758;BME280;52495;52.208;5.158;2023-03-03T10:36:13;102710.59;;;6.24;83.87
65758;BME280;52495;52.208;5.158;2023-03-03T10:38:54;102702.00;;;6.51;83.36
65758;BME280;52495;52.208;5.158;2023-03-03T10:41:42;102708.06;;;6.53;82.79
65758;BME280;52495;52.208;5.158;2023-03-03T10:44:27;102702.25;;;6.59;80.68
65758;BME280;52495;52.208;5.158;2023-03-03T10:47:08;102700.13;;;6.45;81.71
65758;BME280;52495;52.208;5.158;2023-03-03T10:49:51;102707.84;;;6.45;82.50
65758;BME280;52495;52.208;5.158;2023-03-03T10:52:31;102702.34;;;6.62;82.48
65758;BME280;52495;52.208;5.158;2023-03-03T10:55:29;102695.41;;;6.59;81.31
65758;BME280;52495;52.208;5.158;2023-03-03T10:58:15;102698.13;;;6.64;82.84
65758;BME280;52495;52.208;5.158;2023-03-03T11:00:46;102689.47;;;6.91;81.00
65758;BME280;52495;52.208;5.158;2023-03-03T11:03:31;102694.59;;;6.91;81.08
65758;BME280;52495;52.208;5.158;2023-03-03T11:06:05;102695.31;;;7.17;79.24
65758;BME280;52495;52.208;5.158;2023-03-03T11:08:40;102698.31;;;7.02;79.03
65758;BME280;52495;52.208;5.158;2023-03-03T11:11:13;102692.84;;;7.22;80.17
65758;BME280;52495;52.208;5.158;2023-03-03T11:13:47;102689.00;;;7.38;76.70
65758;BME280;52495;52.208;5.158;2023-03-03T11:16:36;102694.06;;;7.35;78.33
65758;BME280;52495;52.208;5.158;2023-03-03T11:19:17;102683.91;;;7.39;78.20
65758;BME280;52495;52.208;5.158;2023-03-03T11:21:55;102684.53;;;7.64;78.26
65758;BME280;52495;52.208;5.158;2023-03-03T11:24:34;102685.91;;;7.85;77.04
65758;BME280;52495;52.208;5.158;2023-03-03T11:27:34;102675.53;;;8.20;75.32
65758;BME280;52495;52.208;5.158;2023-03-03T11:30:27;102667.81;;;8.20;72.52
65758;BME280;52495;52.208;5.158;2023-03-03T11:33:02;102674.09;;;8.31;71.79
65758;BME280;52495;52.208;5.158;2023-03-03T11:35:37;102671.53;;;8.33;70.83
65758;BME280;52495;52.208;5.158;2023-03-03T11:38:35;102672.03;;;8.16;71.87
65758;BME280;52495;52.208;5.158;2023-03-03T11:41:12;102671.34;;;8.24;68.30
65758;BME280;52495;52.208;5.158;2023-03-03T11:43:45;102668.13;;;7.96;68.61
65758;BME280;52495;52.208;5.158;2023-03-03T11:46:17;102670.38;;;7.82;68.83
65758;BME280;52495;52.208;5.158;2023-03-03T11:48:52;102670.06;;;7.69;69.27
65758;BME280;52495;52.208;5.158;2023-03-03T11:51:25;102674.34;;;7.67;69.71
65758;BME280;52495;52.208;5.158;2023-03-03T11:54:03;102682.09;;;7.70;70.09
65758;BME280;52495;52.208;5.158;2023-03-03T11:56:34;102674.50;;;7.75;67.17
65758;BME280;52495;52.208;5.158;2023-03-03T11:59:33;102670.72;;;7.60;68.14
65758;BME280;52495;52.208;5.158;2023-03-03T12:05:05;102671.84;;;7.37;68.31
65758;BME280;52495;52.208;5.158;2023-03-03T12:07:41;102667.66;;;7.40;68.15
65758;BME280;52495;52.208;5.158;2023-03-03T12:10:18;102666.00;;;7.42;69.65
65758;BME280;52495;52.208;5.158;2023-03-03T12:12:53;102663.34;;;7.74;68.72
65758;BME280;52495;52.208;5.158;2023-03-03T12:15:30;102654.41;;;7.95;67.82
65758;BME280;52495;52.208;5.158;2023-03-03T12:18:11;102657.41;;;8.14;65.07
65758;BME280;52495;52.208;5.158;2023-03-03T12:20:47;102650.78;;;8.25;65.15
65758;BME280;52495;52.208;5.158;2023-03-03T12:23:36;102655.72;;;8.16;64.94
65758;BME280;52495;52.208;5.158;2023-03-03T12:26:12;102650.00;;;7.89;65.60
65758;BME280;52495;52.208;5.158;2023-03-03T12:28:49;102654.31;;;7.92;66.05
65758;BME280;52495;52.208;5.158;2023-03-03T12:31:25;102648.16;;;7.84;66.42
65758;BME280;52495;52.208;5.158;2023-03-03T12:33:57;102644.53;;;7.77;65.87
65758;BME280;52495;52.208;5.158;2023-03-03T12:36:39;102642.59;;;7.67;65.38
65758;BME280;52495;52.208;5.158;2023-03-03T12:39:17;102645.53;;;7.82;63.76
65758;BME280;52495;52.208;5.158;2023-03-03T12:41:54;102636.69;;;7.71;63.81
65758;BME280;52495;52.208;5.158;2023-03-03T12:44:29;102645.69;;;7.90;63.08
65758;BME280;52495;52.208;5.158;2023-03-03T12:47:02;102637.31;;;7.97;63.25
65758;BME280;52495;52.208;5.158;2023-03-03T12:49:38;102636.66;;;8.06;62.61
65758;BME280;52495;52.208;5.158;2023-03-03T12:52:22;102625.53;;;8.09;63.11
65758;BME280;52495;52.208;5.158;2023-03-03T12:54:54;102625.25;;;8.34;62.22
65758;BME280;52495;52.208;5.158;2023-03-03T12:57:32;102624.75;;;8.51;61.64
65758;BME280;52495;52.208;5.158;2023-03-03T13:00:23;102628.06;;;8.45;60.22
65758;BME280;52495;52.208;5.158;2023-03-03T13:03:06;102627.91;;;8.39;60.36
65758;BME280;52495;52.208;5.158;2023-03-03T13:05:48;102632.16;;;8.37;59.24
65758;BME280;52495;52.208;5.158;2023-03-03T13:08:25;102634.25;;;8.14;60.79
65758;BME280;52495;52.208;5.158;2023-03-03T13:11:03;102635.66;;;8.01;61.17
65758;BME280;52495;52.208;5.158;2023-03-03T13:13:36;102623.88;;;8.11;60.52
65758;BME280;52495;52.208;5.158;2023-03-03T13:16:10;102620.72;;;8.23;59.41
65758;BME280;52495;52.208;5.158;2023-03-03T13:18:48;102628.44;;;8.24;59.54
65758;BME280;52495;52.208;5.158;2023-03-03T13:21:22;102621.84;;;8.35;58.50
65758;BME280;52495;52.208;5.158;2023-03-03T13:23:53;102621.13;;;8.43;58.53
65758;BME280;52495;52.208;5.158;2023-03-03T13:26:26;102627.00;;;8.35;58.23
65758;BME280;52495;52.208;5.158;2023-03-03T13:29:01;102627.69;;;8.30;58.25